createdAt,value
2022-10-07T00:00:49.718Z,8.07
2022-10-07T00:01:49.755Z,8.03
2022-10-07T00:02:49.626Z,8.09
2022-10-07T00:03:49.442Z,8.03
2022-10-07T00:04:49.361Z,8.07
2022-10-07T00:05:49.275Z,8.09
2022-10-07T00:06:49.196Z,8.00
2022-10-07T00:07:49.131Z,8.03
2022-10-07T00:08:49.030Z,8.06
2022-10-07T00:09:48.947Z,7.94
2022-10-07T00:10:48.865Z,7.94
2022-10-07T00:11:48.783Z,7.85
2022-10-07T00:12:48.699Z,7.99
2022-10-07T00:13:48.615Z,7.88
2022-10-07T00:14:48.536Z,7.91
2022-10-07T00:15:48.450Z,7.91
2022-10-07T00:16:48.442Z,7.83
2022-10-07T00:17:48.287Z,7.86
2022-10-07T00:18:48.204Z,7.85
2022-10-07T00:19:48.121Z,7.86
2022-10-07T00:20:48.041Z,7.88
2022-10-07T00:21:47.953Z,7.78
2022-10-07T00:22:47.874Z,7.83
2022-10-07T00:23:47.808Z,7.82
2022-10-07T00:24:47.708Z,7.81
2022-10-07T00:25:47.623Z,7.85
2022-10-07T00:26:47.541Z,7.88
2022-10-07T00:27:47.516Z,7.88
2022-10-07T00:28:47.376Z,7.90
2022-10-07T00:29:47.292Z,7.94
2022-10-07T00:30:47.265Z,7.97
2022-10-07T00:31:47.130Z,7.93
2022-10-07T00:32:47.046Z,8.00
2022-10-07T00:33:46.961Z,8.00
2022-10-07T00:34:46.879Z,8.01
2022-10-07T00:35:46.800Z,8.09
2022-10-07T00:36:46.875Z,8.09
2022-10-07T00:37:47.149Z,8.00
2022-10-07T00:38:46.558Z,8.11
2022-10-07T00:39:46.487Z,8.09
2022-10-07T00:40:46.386Z,8.22
2022-10-07T00:41:46.304Z,8.21
2022-10-07T00:42:46.222Z,8.24
2022-10-07T00:43:46.138Z,8.29
2022-10-07T00:44:46.055Z,8.21
2022-10-07T00:45:46.162Z,8.22
2022-10-07T00:46:45.895Z,8.30
2022-10-07T00:47:46.532Z,8.25
2022-10-07T00:48:45.825Z,8.34
2022-10-07T00:49:45.642Z,8.22
2022-10-07T00:50:45.561Z,8.33
2022-10-07T00:51:45.477Z,8.33
2022-10-07T00:52:45.395Z,8.40
2022-10-07T00:53:45.314Z,8.42
2022-10-07T00:54:45.231Z,8.36
2022-10-07T00:55:45.167Z,8.44
2022-10-07T00:56:45.069Z,8.43
2022-10-07T00:57:45.268Z,8.39
2022-10-07T00:58:44.902Z,8.44
2022-10-07T00:59:44.820Z,8.42
2022-10-07T01:00:44.743Z,8.40
2022-10-07T01:01:44.725Z,8.50
2022-10-07T01:02:44.611Z,8.44
2022-10-07T01:03:44.492Z,8.42
2022-10-07T01:04:44.410Z,8.40
2022-10-07T01:05:44.327Z,8.42
2022-10-07T01:06:44.242Z,8.44
2022-10-07T01:07:44.469Z,8.37
2022-10-07T01:08:44.080Z,8.32
2022-10-07T01:09:43.997Z,8.30
2022-10-07T01:10:43.914Z,8.34
2022-10-07T01:11:43.852Z,8.32
2022-10-07T01:12:43.750Z,8.25
2022-10-07T01:13:43.673Z,8.25
2022-10-07T01:14:43.585Z,8.24
2022-10-07T01:15:43.504Z,8.24
2022-10-07T01:16:43.466Z,8.30
2022-10-07T01:17:43.529Z,8.25
2022-10-07T01:18:43.256Z,8.29
2022-10-07T01:19:43.174Z,8.21
2022-10-07T01:20:43.093Z,8.17
2022-10-07T01:21:43.007Z,8.15
2022-10-07T01:22:42.925Z,8.18
2022-10-07T01:23:42.846Z,8.19
2022-10-07T01:24:42.762Z,8.24
2022-10-07T01:25:42.679Z,8.12
2022-10-07T01:26:42.598Z,8.07
2022-10-07T01:27:43.134Z,8.06
2022-10-07T01:28:42.477Z,8.09
2022-10-07T01:29:42.350Z,8.12
2022-10-07T01:30:42.394Z,8.22
2022-10-07T01:31:42.186Z,8.12
2022-10-07T01:32:42.102Z,8.12
2022-10-07T01:33:42.018Z,8.06
2022-10-07T01:34:41.938Z,8.25
2022-10-07T01:35:41.856Z,8.12
2022-10-07T01:36:41.922Z,8.17
2022-10-07T01:37:42.044Z,8.03
2022-10-07T01:38:41.628Z,8.11
2022-10-07T01:39:41.525Z,8.04
2022-10-07T01:40:41.444Z,8.15
2022-10-07T01:41:41.361Z,8.03
2022-10-07T01:42:41.277Z,8.07
2022-10-07T01:43:41.214Z,8.14
2022-10-07T01:44:41.122Z,7.99
2022-10-07T01:45:41.029Z,8.04
2022-10-07T01:46:40.949Z,8.07
2022-10-07T01:47:40.925Z,8.07
2022-10-07T01:48:40.784Z,8.00
2022-10-07T01:49:40.701Z,8.00
2022-10-07T01:50:40.619Z,8.03
2022-10-07T01:51:40.538Z,8.14
2022-10-07T01:52:40.453Z,8.04
2022-10-07T01:53:40.374Z,8.07
2022-10-07T01:54:40.287Z,7.97
2022-10-07T01:55:40.756Z,7.86
2022-10-07T01:56:40.122Z,7.90
2022-10-07T01:57:40.040Z,7.86
2022-10-07T01:58:39.958Z,7.86
2022-10-07T01:59:39.898Z,7.91
2022-10-07T02:00:39.793Z,7.96
2022-10-07T02:01:39.787Z,7.88
2022-10-07T02:02:39.626Z,7.83
2022-10-07T02:03:39.596Z,7.85
2022-10-07T02:04:39.462Z,7.86
2022-10-07T02:05:39.380Z,7.85
2022-10-07T02:06:39.299Z,7.88
2022-10-07T02:07:39.215Z,7.88
2022-10-07T02:08:39.132Z,7.85
2022-10-07T02:09:39.051Z,7.85
2022-10-07T02:10:38.965Z,7.83
2022-10-07T02:11:39.086Z,7.91
2022-10-07T02:12:38.803Z,8.01
2022-10-07T02:13:38.720Z,7.90
2022-10-07T02:14:38.637Z,7.90
2022-10-07T02:15:38.607Z,7.94
2022-10-07T02:16:38.469Z,8.01
2022-10-07T02:17:38.389Z,7.90
2022-10-07T02:18:38.303Z,7.93
2022-10-07T02:19:38.221Z,7.99
2022-10-07T02:20:38.138Z,7.93
2022-10-07T02:21:38.060Z,7.86
2022-10-07T02:22:37.973Z,7.83
2022-10-07T02:23:37.893Z,7.85
2022-10-07T02:24:37.809Z,7.73
2022-10-07T02:25:37.725Z,7.86
2022-10-07T02:26:37.644Z,7.86
2022-10-07T02:27:37.561Z,7.86
2022-10-07T02:28:37.532Z,7.88
2022-10-07T02:29:37.396Z,7.82
2022-10-07T02:30:37.312Z,7.85
2022-10-07T02:31:37.255Z,7.85
2022-10-07T02:32:37.148Z,7.83
2022-10-07T02:33:37.066Z,7.83
2022-10-07T02:34:36.982Z,7.73
2022-10-07T02:35:36.904Z,7.73
2022-10-07T02:36:36.825Z,7.72
2022-10-07T02:37:36.734Z,7.76
2022-10-07T02:38:36.652Z,7.70
2022-10-07T02:39:36.569Z,7.73
2022-10-07T02:40:36.485Z,7.81
2022-10-07T02:41:36.403Z,7.83
2022-10-07T02:42:36.321Z,7.79
2022-10-07T02:43:36.238Z,7.75
2022-10-07T02:44:36.155Z,7.82
2022-10-07T02:45:36.074Z,7.78
2022-10-07T02:46:36.319Z,7.83
2022-10-07T02:47:35.924Z,7.91
2022-10-07T02:48:35.825Z,7.93
2022-10-07T02:49:35.743Z,7.85
2022-10-07T02:50:35.659Z,7.99
2022-10-07T02:51:35.576Z,8.07
2022-10-07T02:52:35.493Z,8.06
2022-10-07T02:53:35.413Z,8.07
2022-10-07T02:54:35.382Z,8.04
2022-10-07T02:55:35.256Z,8.03
2022-10-07T02:56:35.165Z,8.11
2022-10-07T02:57:35.082Z,8.15
2022-10-07T02:58:35.000Z,8.24
2022-10-07T02:59:34.915Z,8.22
2022-10-07T03:00:34.834Z,8.19
2022-10-07T03:01:34.789Z,8.18
2022-10-07T03:02:34.668Z,8.25
2022-10-07T03:03:34.669Z,8.25
2022-10-07T03:04:34.502Z,8.22
2022-10-07T03:05:34.423Z,8.21
2022-10-07T03:06:34.340Z,8.21
2022-10-07T03:07:34.257Z,8.34
2022-10-07T03:08:34.176Z,8.33
2022-10-07T03:09:34.092Z,8.24
2022-10-07T03:10:34.007Z,8.29
2022-10-07T03:11:33.926Z,8.29
2022-10-07T03:12:33.842Z,8.34
2022-10-07T03:13:33.761Z,8.21
2022-10-07T03:14:33.675Z,8.25
2022-10-07T03:15:36.370Z,8.21
2022-10-07T03:16:33.587Z,8.24
2022-10-07T03:17:33.429Z,8.14
2022-10-07T03:18:33.348Z,8.12
2022-10-07T03:19:33.282Z,8.12
2022-10-07T03:20:33.182Z,8.00
2022-10-07T03:21:33.104Z,8.04
2022-10-07T03:22:33.018Z,8.11
2022-10-07T03:23:32.933Z,7.99
2022-10-07T03:24:32.852Z,8.00
2022-10-07T03:25:32.766Z,8.00
2022-10-07T03:26:32.691Z,7.99
2022-10-07T03:27:32.606Z,8.00
2022-10-07T03:28:32.583Z,7.88
2022-10-07T03:29:32.439Z,7.93
2022-10-07T03:30:32.357Z,7.90
2022-10-07T03:31:32.381Z,7.93
2022-10-07T03:32:32.190Z,7.85
2022-10-07T03:33:32.157Z,7.90
2022-10-07T03:34:32.026Z,7.94
2022-10-07T03:35:31.961Z,7.97
2022-10-07T03:36:31.862Z,7.97
2022-10-07T03:37:31.826Z,7.97
2022-10-07T03:38:31.694Z,8.00
2022-10-07T03:39:31.611Z,8.07
2022-10-07T03:40:31.531Z,8.01
2022-10-07T03:41:31.450Z,7.96
2022-10-07T03:42:31.368Z,7.99
2022-10-07T03:43:31.280Z,7.97
2022-10-07T03:44:31.200Z,7.86
2022-10-07T03:45:31.117Z,7.85
2022-10-07T03:46:31.128Z,7.86
2022-10-07T03:47:30.951Z,7.86
2022-10-07T03:48:30.870Z,8.00
2022-10-07T03:49:30.787Z,7.97
2022-10-07T03:50:30.705Z,7.96
2022-10-07T03:51:30.638Z,8.00
2022-10-07T03:52:30.538Z,7.97
2022-10-07T03:53:30.453Z,7.86
2022-10-07T03:54:30.373Z,7.83
2022-10-07T03:55:30.291Z,7.91
2022-10-07T03:56:30.209Z,7.72
2022-10-07T03:57:30.127Z,7.88
2022-10-07T03:58:30.044Z,7.85
2022-10-07T03:59:29.960Z,7.86
2022-10-07T04:00:29.894Z,7.70
2022-10-07T04:01:29.838Z,7.88
2022-10-07T04:02:29.761Z,7.83
2022-10-07T04:03:29.630Z,7.78
2022-10-07T04:04:29.546Z,7.78
2022-10-07T04:05:29.462Z,7.76
2022-10-07T04:06:29.383Z,7.75
2022-10-07T04:07:29.316Z,7.72
2022-10-07T04:08:29.267Z,7.72
2022-10-07T04:09:29.132Z,7.68
2022-10-07T04:10:29.050Z,7.68
2022-10-07T04:11:28.966Z,7.64
2022-10-07T04:12:28.887Z,7.49
2022-10-07T04:13:28.804Z,7.45
2022-10-07T04:14:28.719Z,7.52
2022-10-07T04:15:28.634Z,7.55
2022-10-07T04:16:28.683Z,7.49
2022-10-07T04:17:28.470Z,7.45
2022-10-07T04:18:28.388Z,7.48
2022-10-07T04:19:28.305Z,7.42
2022-10-07T04:20:28.222Z,7.47
2022-10-07T04:21:28.239Z,7.34
2022-10-07T04:22:28.058Z,7.37
2022-10-07T04:23:27.995Z,7.30
2022-10-07T04:24:27.893Z,7.30
2022-10-07T04:25:27.807Z,7.38
2022-10-07T04:26:27.727Z,7.39
2022-10-07T04:27:50.079Z,7.34
2022-10-07T04:28:27.599Z,7.39
2022-10-07T04:29:27.486Z,7.24
2022-10-07T04:30:27.421Z,7.27
2022-10-07T04:31:27.377Z,7.29
2022-10-07T04:32:27.228Z,7.26
2022-10-07T04:33:27.145Z,7.24
2022-10-07T04:34:27.063Z,7.21
2022-10-07T04:35:26.976Z,7.29
2022-10-07T04:36:26.897Z,7.13
2022-10-07T04:37:26.810Z,7.30
2022-10-07T04:38:28.522Z,7.37
2022-10-07T04:39:37.643Z,7.34
2022-10-07T04:40:26.564Z,7.31
2022-10-07T04:41:26.482Z,7.42
2022-10-07T04:42:26.399Z,7.30
2022-10-07T04:43:26.315Z,7.44
2022-10-07T04:44:26.232Z,7.39
2022-10-07T04:45:26.146Z,7.45
2022-10-07T04:46:26.185Z,7.45
2022-10-07T04:47:25.983Z,7.57
2022-10-07T04:48:25.900Z,7.57
2022-10-07T04:51:51.440Z,7.70
2022-10-07T04:52:51.366Z,7.72
2022-10-07T04:53:55.765Z,7.73
2022-10-07T04:54:51.210Z,7.78
2022-10-07T04:55:51.111Z,7.82
2022-10-07T04:56:51.025Z,7.75
2022-10-07T04:57:50.943Z,7.88
2022-10-07T04:58:50.861Z,7.85
2022-10-07T04:59:50.775Z,7.86
2022-10-07T05:00:50.834Z,8.01
2022-10-07T05:01:50.641Z,7.97
2022-10-07T05:02:50.529Z,8.01
2022-10-07T05:03:50.446Z,8.04
2022-10-07T05:04:50.362Z,8.06
2022-10-07T05:05:50.285Z,8.15
2022-10-07T05:06:50.201Z,8.03
2022-10-07T05:07:50.120Z,8.17
2022-10-07T05:08:50.065Z,8.14
2022-10-07T05:09:49.947Z,8.17
2022-10-07T05:10:49.886Z,8.17
2022-10-07T05:11:49.783Z,8.12
2022-10-07T05:12:55.124Z,8.07
2022-10-07T05:13:49.617Z,8.12
2022-10-07T05:14:49.584Z,8.12
2022-10-07T05:15:49.481Z,8.11
2022-10-07T05:16:49.371Z,8.14
2022-10-07T05:17:49.285Z,8.22
2022-10-07T05:18:49.204Z,8.19
2022-10-07T05:19:49.120Z,8.22
2022-10-07T05:20:49.039Z,8.24
2022-10-07T05:21:48.957Z,8.22
2022-10-07T05:22:48.874Z,8.15
2022-10-07T05:23:48.890Z,8.18
2022-10-07T05:24:48.710Z,8.14
2022-10-07T05:25:48.625Z,8.18
2022-10-07T05:26:48.565Z,8.17
2022-10-07T05:27:48.863Z,8.18
2022-10-07T05:28:48.379Z,8.12
2022-10-07T05:29:48.301Z,8.21
2022-10-07T05:30:48.216Z,8.21
2022-10-07T05:31:48.244Z,8.21
2022-10-07T05:32:48.049Z,8.22
2022-10-07T05:33:47.967Z,8.39
2022-10-07T05:34:47.886Z,8.40
2022-10-07T05:35:47.801Z,8.44
2022-10-07T05:36:47.723Z,8.42
2022-10-07T05:37:51.235Z,8.50
2022-10-07T05:38:47.555Z,8.39
2022-10-07T05:39:47.472Z,8.30
2022-10-07T05:40:47.390Z,8.40
2022-10-07T05:41:47.308Z,8.25
2022-10-07T05:42:47.245Z,8.24
2022-10-07T05:43:47.142Z,8.30
2022-10-07T05:44:47.062Z,8.32
2022-10-07T05:45:47.023Z,8.25
2022-10-07T05:46:46.897Z,8.25
2022-10-07T05:47:47.189Z,8.27
2022-10-07T05:48:46.733Z,8.22
2022-10-07T05:49:46.650Z,8.27
2022-10-07T05:50:46.581Z,8.22
2022-10-07T05:51:46.491Z,8.27
2022-10-07T05:52:46.403Z,8.30
2022-10-07T05:53:46.329Z,8.30
2022-10-07T05:54:46.240Z,8.27
2022-10-07T05:55:46.154Z,8.43
2022-10-07T05:56:46.076Z,8.33
2022-10-07T05:57:46.472Z,8.43
2022-10-07T05:58:45.927Z,8.43
2022-10-07T05:59:45.826Z,8.43
2022-10-07T06:00:45.768Z,8.43
2022-10-07T06:01:45.702Z,8.36
2022-10-07T06:02:45.736Z,8.40
2022-10-07T06:03:45.496Z,8.47
2022-10-07T06:04:45.414Z,8.54
2022-10-07T06:05:45.332Z,8.51
2022-10-07T06:06:45.253Z,8.61
2022-10-07T06:07:45.468Z,8.66
2022-10-07T06:08:45.087Z,8.66
2022-10-07T06:09:45.005Z,8.65
2022-10-07T06:10:44.925Z,8.75
2022-10-07T06:11:44.838Z,8.69
2022-10-07T06:12:44.758Z,8.69
2022-10-07T06:13:44.725Z,8.69
2022-10-07T06:14:44.612Z,8.80
2022-10-07T06:15:44.512Z,8.79
2022-10-07T06:16:44.569Z,8.79
2022-10-07T06:17:44.787Z,8.82
2022-10-07T06:18:44.267Z,8.87
2022-10-07T06:19:44.183Z,8.85
2022-10-07T06:20:44.102Z,8.88
2022-10-07T06:21:44.021Z,8.90
2022-10-07T06:22:43.942Z,8.93
2022-10-07T06:23:43.857Z,8.98
2022-10-07T06:24:43.775Z,8.95
2022-10-07T06:25:43.695Z,8.95
2022-10-07T06:26:43.618Z,8.98
2022-10-07T06:27:43.949Z,8.94
2022-10-07T06:28:43.537Z,8.98
2022-10-07T06:29:43.367Z,8.95
2022-10-07T06:30:43.353Z,8.90
2022-10-07T06:31:43.203Z,9.03
2022-10-07T06:32:43.125Z,8.97
2022-10-07T06:33:43.041Z,8.98
2022-10-07T06:34:42.959Z,9.00
2022-10-07T06:35:42.879Z,9.06
2022-10-07T06:36:42.797Z,9.10
2022-10-07T06:37:43.107Z,9.13
2022-10-07T06:38:42.635Z,9.16
2022-10-07T06:39:42.550Z,9.16
2022-10-07T06:40:42.472Z,9.32
2022-10-07T06:41:42.391Z,9.28
2022-10-07T06:42:42.310Z,9.34
2022-10-07T06:43:42.222Z,9.34
2022-10-07T06:44:42.145Z,9.31
2022-10-07T06:45:42.091Z,9.32
2022-10-07T06:46:42.001Z,9.32
2022-10-07T06:47:41.976Z,9.32
2022-10-07T06:48:41.820Z,9.20
2022-10-07T06:49:41.738Z,9.20
2022-10-07T06:50:41.654Z,9.17
2022-10-07T06:51:41.575Z,9.17
2022-10-07T06:52:43.564Z,9.06
2022-10-07T06:53:41.414Z,9.05
2022-10-07T06:54:41.330Z,9.03
2022-10-07T06:55:41.247Z,9.02
2022-10-07T06:56:41.168Z,8.97
2022-10-07T06:57:45.629Z,8.98
2022-10-07T06:58:41.009Z,8.95
2022-10-07T06:59:40.925Z,9.00
2022-10-07T07:00:40.840Z,8.97
2022-10-07T07:01:40.819Z,8.95
2022-10-07T07:02:40.803Z,9.03
2022-10-07T07:03:40.600Z,8.94
2022-10-07T07:04:40.565Z,9.00
2022-10-07T07:05:44.417Z,9.02
2022-10-07T07:06:40.352Z,8.93
2022-10-07T07:07:40.271Z,8.98
2022-10-07T07:08:40.192Z,9.14
2022-10-07T07:09:40.106Z,9.17
2022-10-07T07:10:40.026Z,9.14
2022-10-07T07:11:39.949Z,9.20
2022-10-07T07:13:42.552Z,9.17
2022-10-07T07:14:39.701Z,9.20
2022-10-07T07:15:39.618Z,9.29
2022-10-07T07:16:39.600Z,9.20
2022-10-07T07:17:39.457Z,9.37
2022-10-07T07:18:39.484Z,9.43
2022-10-07T07:19:39.297Z,9.47
2022-10-07T07:20:39.213Z,9.55
2022-10-07T07:21:39.133Z,9.60
2022-10-07T07:22:39.051Z,9.72
2022-10-07T07:23:38.971Z,9.79
2022-10-07T07:24:38.889Z,9.80
2022-10-07T07:25:38.811Z,9.80
2022-10-07T07:26:38.727Z,9.96
2022-10-07T07:27:38.649Z,9.92
2022-10-07T07:28:38.671Z,9.97
2022-10-07T07:29:38.636Z,10.01
2022-10-07T07:30:38.439Z,10.06
2022-10-07T07:31:38.326Z,10.07
2022-10-07T07:32:38.250Z,10.19
2022-10-07T07:33:38.162Z,10.25
2022-10-07T07:34:38.319Z,10.36
2022-10-07T07:35:38.001Z,10.41
2022-10-07T07:36:37.919Z,10.58
2022-10-07T07:37:37.840Z,10.66
2022-10-07T07:38:37.759Z,10.71
2022-10-07T07:39:37.676Z,10.71
2022-10-07T07:40:37.804Z,10.63
2022-10-07T07:41:37.516Z,10.65
2022-10-07T07:42:37.685Z,10.67
2022-10-07T07:43:37.358Z,10.71
2022-10-07T07:44:37.292Z,10.73
2022-10-07T07:45:37.199Z,10.74
2022-10-07T07:46:37.115Z,10.78
2022-10-07T07:47:37.035Z,10.67
2022-10-07T07:48:36.954Z,10.74
2022-10-07T07:49:36.875Z,10.69
2022-10-07T07:50:36.811Z,10.65
2022-10-07T07:51:36.715Z,10.65
2022-10-07T07:52:36.634Z,10.59
2022-10-07T07:53:36.555Z,10.71
2022-10-07T07:54:36.472Z,10.66
2022-10-07T07:55:36.392Z,10.74
2022-10-07T07:56:36.314Z,10.84
2022-10-07T07:57:36.233Z,10.87
2022-10-07T07:58:36.150Z,10.93
2022-10-07T07:59:36.074Z,10.91
2022-10-07T08:00:35.991Z,10.95
2022-10-07T08:01:35.997Z,10.98
2022-10-07T08:02:35.852Z,11.02
2022-10-07T08:03:35.753Z,11.11
2022-10-07T08:04:35.670Z,11.14
2022-10-07T08:05:35.594Z,11.26
2022-10-07T08:06:35.531Z,11.29
2022-10-07T08:07:35.437Z,11.35
2022-10-07T08:08:35.349Z,11.46
2022-10-07T08:09:35.274Z,11.35
2022-10-07T08:10:35.192Z,11.41
2022-10-07T08:11:35.213Z,11.51
2022-10-07T08:12:35.033Z,11.56
2022-10-07T08:13:34.953Z,11.59
2022-10-07T08:14:34.871Z,11.64
2022-10-07T08:15:34.824Z,11.67
2022-10-07T08:16:34.714Z,11.71
2022-10-07T08:17:34.637Z,11.74
2022-10-07T08:18:34.555Z,11.78
2022-10-07T08:19:34.475Z,11.79
2022-10-07T08:20:34.396Z,11.94
2022-10-07T08:21:34.318Z,11.89
2022-10-07T08:22:34.347Z,11.94
2022-10-07T08:23:34.159Z,12.05
2022-10-07T08:24:34.230Z,12.06
2022-10-07T08:25:34.001Z,12.11
2022-10-07T08:27:16.402Z,12.09
2022-10-07T08:28:16.395Z,12.13
2022-10-07T08:29:16.245Z,12.18
2022-10-07T08:30:16.166Z,12.12
2022-10-07T08:31:16.187Z,12.19
2022-10-07T08:32:16.006Z,12.27
2022-10-07T08:33:15.928Z,12.36
2022-10-07T08:34:15.850Z,12.39
2022-10-07T08:35:15.767Z,12.36
2022-10-07T08:36:15.691Z,12.49
2022-10-07T08:37:15.611Z,12.51
2022-10-07T08:38:15.550Z,12.53
2022-10-07T08:39:15.455Z,12.55
2022-10-07T08:40:15.377Z,12.53
2022-10-07T08:41:15.296Z,12.56
2022-10-07T08:42:15.267Z,12.64
2022-10-07T08:43:15.140Z,12.78
2022-10-07T08:44:16.873Z,12.74
2022-10-07T09:41:43.473Z,15.33
2022-10-07T09:42:43.377Z,15.39
2022-10-07T09:43:47.133Z,15.43
2022-10-07T09:44:43.225Z,15.49
2022-10-07T09:45:43.145Z,15.59
2022-10-07T09:46:43.129Z,15.73
2022-10-07T09:47:43.336Z,15.73
2022-10-07T09:48:42.917Z,15.82
2022-10-07T09:49:42.837Z,15.86
2022-10-07T09:50:42.763Z,15.92
2022-10-07T09:51:42.686Z,15.97
2022-10-07T09:52:42.611Z,16.01
2022-10-07T09:53:42.533Z,16.00
2022-10-07T09:54:42.462Z,15.96
2022-10-07T09:56:24.864Z,16.07
2022-10-07T09:57:24.814Z,16.14
2022-10-07T09:58:24.726Z,16.20
2022-10-07T09:59:24.634Z,16.25
2022-10-07T10:00:24.557Z,16.34
2022-10-07T10:01:24.481Z,16.30
2022-10-07T10:04:46.866Z,16.59
2022-10-07T10:05:46.790Z,16.65
2022-10-07T10:06:46.713Z,16.80
2022-10-07T10:07:47.237Z,16.82
2022-10-07T10:08:46.558Z,16.92
2022-10-07T10:09:46.485Z,16.99
2022-10-07T11:52:55.736Z,21.51
2022-10-07T11:53:55.398Z,21.69
2022-10-07T11:54:55.323Z,21.76
2022-10-07T11:55:55.408Z,21.91
2022-10-07T11:56:55.182Z,21.61
2022-10-07T11:57:55.110Z,21.72
2022-10-07T11:58:55.042Z,21.74
2022-10-07T11:59:54.971Z,21.97
2022-10-07T12:00:54.901Z,22.08
2022-10-07T12:01:54.853Z,22.20
2022-10-07T12:02:54.834Z,22.38
2022-10-07T12:03:54.689Z,22.65
2022-10-07T12:04:54.617Z,22.62
2022-10-07T12:05:54.550Z,22.94
2022-10-07T12:06:54.489Z,23.35
2022-10-07T12:26:51.142Z,21.54
2022-10-07T12:27:51.054Z,21.69
2022-10-07T12:28:50.982Z,22.01
2022-10-07T12:29:50.917Z,22.08
2022-10-07T12:30:50.846Z,22.19
2022-10-07T12:31:50.899Z,22.47
2022-10-07T12:32:50.704Z,22.69
2022-10-07T12:33:50.637Z,22.52
2022-10-07T12:34:50.568Z,22.69
2022-10-07T12:35:54.278Z,22.71
2022-10-07T12:36:50.430Z,23.17
2022-10-07T12:37:50.485Z,23.46
2022-10-07T12:38:50.292Z,23.53
2022-10-07T12:39:50.226Z,23.80
2022-10-07T12:40:50.154Z,24.05
2022-10-07T12:41:50.900Z,24.40
2022-10-07T12:42:50.038Z,24.57
2022-10-07T12:43:49.953Z,24.16
2022-10-07T12:44:49.883Z,23.92
2022-10-07T12:45:52.494Z,23.52
2022-10-07T12:46:49.749Z,23.56
2022-10-07T12:47:49.680Z,23.46
2022-10-07T12:48:49.617Z,24.00
2022-10-07T12:49:49.549Z,24.47
2022-10-07T12:50:49.477Z,24.52
2022-10-07T12:51:49.412Z,24.45
2022-10-07T12:52:49.476Z,24.45
2022-10-07T12:53:49.478Z,23.93
2022-10-07T12:54:49.213Z,23.83
2022-10-07T12:55:49.147Z,23.95
2022-10-07T12:56:49.078Z,24.20
2022-10-07T12:57:49.012Z,24.26
2022-10-07T12:58:48.971Z,24.35
2022-10-07T12:59:48.885Z,24.56
2022-10-07T13:01:48.955Z,25.01
2022-10-07T13:02:48.952Z,24.78
2022-10-07T13:03:48.624Z,25.12
2022-10-07T13:04:48.552Z,25.22
2022-10-07T13:05:48.485Z,24.42
2022-10-07T13:06:48.422Z,24.32
2022-10-07T13:07:48.355Z,24.63
2022-10-07T13:08:48.290Z,24.90
2022-10-07T13:09:48.223Z,25.19
2022-10-07T13:10:48.162Z,25.67
2022-10-07T13:11:48.185Z,26.12
2022-10-07T13:12:48.680Z,25.89
2022-10-07T13:13:47.970Z,25.83
2022-10-07T13:14:47.927Z,26.09
2022-10-07T13:15:47.836Z,26.24
2022-10-07T13:16:47.823Z,25.94
2022-10-07T13:17:47.709Z,26.07
2022-10-07T13:18:47.794Z,25.65
2022-10-07T13:19:47.579Z,25.46
2022-10-07T13:20:47.516Z,25.23
2022-10-07T13:21:48.260Z,25.62
2022-10-07T13:22:47.977Z,25.83
2022-10-07T13:23:47.327Z,26.07
2022-10-07T13:24:47.264Z,26.07
2022-10-07T13:25:47.196Z,25.35
2022-10-07T13:26:47.133Z,24.40
2022-10-07T13:27:47.069Z,24.27
2022-10-07T13:28:47.076Z,24.34
2022-10-07T13:29:46.942Z,24.56
2022-10-07T13:30:46.896Z,24.62
2022-10-07T13:31:46.858Z,25.17
2022-10-07T13:32:47.156Z,25.16
2022-10-07T13:33:46.686Z,25.38
2022-10-07T13:34:46.623Z,24.91
2022-10-07T13:35:46.559Z,24.41
2022-10-07T13:36:46.493Z,24.29
2022-10-07T13:37:46.431Z,24.78
2022-10-07T13:38:46.391Z,24.88
2022-10-07T13:39:46.302Z,24.57
2022-10-07T13:40:46.241Z,24.47
2022-10-07T13:41:46.956Z,24.56
2022-10-07T13:42:46.408Z,24.90
2022-10-07T13:43:46.049Z,25.20
2022-10-07T13:44:45.985Z,25.17
2022-10-07T13:45:46.008Z,24.82
2022-10-07T13:46:45.876Z,24.01
2022-10-07T13:47:45.791Z,24.10
2022-10-07T13:48:46.013Z,24.05
2022-10-07T13:49:45.663Z,24.30
2022-10-07T13:50:45.600Z,24.01
2022-10-07T13:51:45.535Z,24.02
2022-10-07T13:52:45.716Z,24.17
2022-10-07T13:53:45.406Z,24.15
2022-10-07T13:54:45.339Z,23.87
2022-10-07T13:55:45.275Z,23.20
2022-10-07T13:56:45.208Z,23.04
2022-10-07T13:57:45.147Z,22.81
2022-10-07T13:58:45.079Z,22.65
2022-10-07T13:59:45.013Z,22.34
2022-10-07T14:00:44.948Z,22.01
2022-10-07T14:01:44.955Z,21.74
2022-10-07T14:02:45.377Z,21.63
2022-10-07T14:04:45.487Z,21.36
2022-10-07T14:05:44.610Z,21.19
2022-10-07T14:06:44.542Z,21.11
2022-10-07T14:07:44.474Z,21.06
2022-10-07T14:08:44.404Z,21.35
2022-10-07T14:09:44.338Z,21.48
2022-10-07T14:10:44.265Z,21.60
2022-10-07T14:14:34.879Z,21.19
2022-10-07T14:15:34.806Z,21.17
2022-10-07T14:16:34.805Z,21.12
2022-10-07T14:17:34.671Z,21.16
2022-10-07T14:18:34.730Z,21.24
2022-10-07T14:19:34.527Z,21.33
2022-10-07T14:20:34.458Z,21.30
2022-10-07T14:24:59.972Z,20.72
2022-10-07T14:25:59.906Z,20.75
2022-10-07T14:26:59.833Z,20.71
2022-10-07T14:27:59.815Z,21.24
2022-10-07T14:28:59.691Z,21.46
2022-10-07T14:29:59.676Z,21.33
2022-10-07T14:30:59.632Z,21.35
2022-10-07T14:32:59.445Z,21.14
2022-10-07T14:34:59.291Z,21.76
2022-10-07T14:35:59.195Z,21.69
2022-10-07T14:36:59.124Z,21.57
2022-10-07T14:37:59.054Z,21.56
2022-10-07T14:38:58.983Z,21.59
2022-10-07T14:39:58.985Z,21.51
2022-10-07T14:40:58.840Z,21.56
2022-10-07T14:41:58.769Z,21.42
2022-10-07T14:42:58.700Z,21.49
2022-10-07T14:43:58.626Z,21.41
2022-10-07T14:44:58.575Z,21.44
2022-10-07T14:45:58.521Z,21.12
2022-10-07T14:46:58.419Z,21.11
2022-10-07T14:47:58.344Z,21.04
2022-10-07T14:48:58.274Z,20.98
2022-10-07T14:49:58.209Z,20.82
2022-10-07T14:50:58.159Z,20.76
2022-10-07T14:51:58.061Z,20.64
2022-10-07T14:52:57.991Z,20.51
2022-10-07T14:53:57.920Z,20.54
2022-10-07T14:54:57.882Z,20.51
2022-10-07T14:55:57.780Z,20.53
2022-10-07T14:56:57.704Z,20.38
2022-10-07T14:57:57.635Z,20.46
2022-10-07T14:58:57.562Z,20.56
2022-10-07T14:59:57.490Z,20.62
2022-10-07T15:18:55.828Z,20.30
2022-10-07T15:19:55.686Z,20.16
2022-10-07T15:20:55.612Z,20.15
2022-10-07T15:21:58.159Z,20.26
2022-10-07T15:35:45.194Z,19.79
2022-10-07T15:36:46.055Z,19.79
2022-10-07T15:37:44.962Z,19.76
2022-10-07T15:38:44.892Z,19.68
2022-10-07T15:39:44.818Z,19.68
2022-10-07T15:40:44.746Z,19.69
2022-10-07T15:41:44.674Z,19.68
2022-10-07T15:42:45.048Z,19.55
2022-10-07T15:43:44.524Z,19.50
2022-10-07T15:44:44.455Z,19.53
2022-10-07T15:45:44.377Z,19.55
2022-10-07T15:46:44.409Z,19.57
2022-10-07T15:47:44.232Z,19.53
2022-10-07T15:48:44.159Z,19.53
2022-10-07T15:49:44.085Z,19.42
2022-10-07T15:50:44.014Z,19.42
2022-10-07T15:51:43.962Z,19.42
2022-10-07T15:52:44.154Z,19.46
2022-10-07T15:53:43.792Z,19.46
2022-10-07T15:54:44.934Z,19.48
2022-10-07T16:10:13.155Z,18.50
2022-10-07T16:11:11.361Z,18.44
2022-10-07T16:12:11.288Z,18.43
2022-10-07T16:13:11.224Z,18.40
2022-10-07T16:14:11.140Z,18.25
2022-10-07T16:15:11.068Z,18.19
2022-10-07T16:16:11.137Z,18.19
2022-10-07T16:17:13.541Z,18.21
2022-10-07T16:18:10.843Z,18.06
2022-10-07T16:19:10.771Z,18.00
2022-10-07T16:20:11.691Z,17.79
2022-10-07T16:21:10.622Z,17.79
2022-10-07T16:22:10.546Z,17.81
2022-10-07T16:23:10.473Z,17.69
2022-10-07T16:24:10.430Z,17.73
2022-10-07T16:26:32.855Z,17.58
2022-10-07T16:27:35.586Z,17.51
2022-10-07T16:28:32.730Z,17.46
2022-10-07T16:32:18.270Z,17.25
2022-10-07T16:33:18.196Z,17.11
2022-10-07T16:34:18.120Z,17.07
2022-10-07T16:35:18.046Z,17.02
2022-10-07T16:36:17.970Z,16.95
2022-10-07T16:37:17.895Z,17.03
2022-10-07T16:38:17.869Z,16.90
2022-10-07T16:40:45.259Z,16.88
2022-10-07T16:45:00.880Z,16.77
2022-10-07T16:46:00.815Z,16.73
2022-10-07T16:47:00.718Z,16.74
2022-10-07T16:48:00.633Z,16.70
2022-10-07T16:49:43.041Z,16.63
2022-10-07T16:50:42.968Z,16.67
2022-10-07T16:52:25.375Z,16.70
2022-10-07T16:53:25.301Z,16.73
2022-10-07T16:54:25.275Z,16.70
2022-10-07T16:55:25.149Z,16.73
2022-10-07T16:56:25.078Z,16.70
2022-10-07T16:57:25.000Z,16.73
2022-10-07T16:58:24.925Z,16.75
2022-10-07T16:59:24.865Z,16.73
2022-10-07T17:00:24.789Z,16.70
2022-10-07T17:01:24.935Z,16.73
2022-10-07T17:02:24.772Z,16.67
2022-10-07T17:03:24.612Z,16.65
2022-10-07T17:04:24.803Z,16.66
2022-10-07T17:05:24.395Z,16.59
2022-10-07T17:06:24.320Z,16.59
2022-10-07T17:07:24.241Z,16.66
2022-10-07T17:08:24.164Z,16.60
2022-10-07T17:09:24.092Z,16.62
2022-10-07T17:10:24.018Z,16.55
2022-10-07T17:11:23.940Z,16.55
2022-10-07T17:12:23.863Z,16.45
2022-10-07T17:13:23.788Z,16.45
2022-10-07T17:14:23.713Z,16.45
2022-10-07T17:15:23.638Z,16.29
2022-10-07T17:16:23.613Z,16.30
2022-10-07T17:17:23.486Z,16.34